createdAt,value
2023-02-03T00:00:53.519Z,42.37
2023-02-03T00:03:20.259Z,51.40
2023-02-03T00:05:47.638Z,48.53
2023-02-03T00:08:15.041Z,41.20
2023-02-03T00:10:42.277Z,44.23
2023-02-03T00:13:09.243Z,44.83
2023-02-03T00:15:35.993Z,38.10
2023-02-03T00:18:02.908Z,35.73
2023-02-03T00:20:29.772Z,43.73
2023-02-03T00:23:07.275Z,42.50
2023-02-03T00:25:34.231Z,42.30
2023-02-03T00:28:01.528Z,39.27
2023-02-03T00:30:28.795Z,33.07
2023-02-03T00:32:55.675Z,44.33
2023-02-03T00:35:23.141Z,34.40
2023-02-03T00:37:54.460Z,41.47
2023-02-03T00:40:22.416Z,40.20
2023-02-03T00:42:49.225Z,33.07
2023-02-03T00:45:16.130Z,41.80
2023-02-03T00:47:42.992Z,42.03
2023-02-03T00:50:10.774Z,36.53
2023-02-03T00:52:37.917Z,34.20
2023-02-03T00:55:05.922Z,35.03
2023-02-03T00:57:32.888Z,37.73
2023-02-03T00:59:59.576Z,36.73
2023-02-03T01:02:26.404Z,33.63
2023-02-03T01:04:53.188Z,38.40
2023-02-03T01:07:19.927Z,38.03
2023-02-03T01:09:46.657Z,35.70
2023-02-03T01:12:13.336Z,33.87
2023-02-03T01:14:40.085Z,30.57
2023-02-03T01:17:06.816Z,33.13
2023-02-03T01:19:33.582Z,36.43
2023-02-03T01:22:00.410Z,41.17
2023-02-03T01:24:29.059Z,39.90
2023-02-03T01:26:55.725Z,29.30
2023-02-03T01:29:22.519Z,34.13
2023-02-03T01:31:49.353Z,39.13
2023-02-03T01:34:18.884Z,31.80
2023-02-03T01:36:46.821Z,33.37
2023-02-03T01:39:14.566Z,35.30
2023-02-03T01:41:41.550Z,32.27
2023-02-03T01:44:36.290Z,35.40
2023-02-03T01:47:06.120Z,36.03
2023-02-03T01:49:37.069Z,38.90
2023-02-03T01:52:04.936Z,30.37
2023-02-03T01:54:37.762Z,34.50
2023-02-03T01:57:12.024Z,33.43
2023-02-03T01:59:39.096Z,33.53
2023-02-03T02:02:07.440Z,33.33
2023-02-03T02:04:50.896Z,33.87
2023-02-03T02:07:17.794Z,31.80
2023-02-03T02:09:46.158Z,31.33
2023-02-03T02:12:13.166Z,28.97
2023-02-03T02:14:40.933Z,32.77
2023-02-03T02:17:39.597Z,36.00
2023-02-03T02:20:12.088Z,31.13
2023-02-03T02:22:41.813Z,33.73
2023-02-03T02:25:56.595Z,28.77
2023-02-03T02:28:57.713Z,28.10
2023-02-03T02:32:02.269Z,31.63
2023-02-03T02:34:50.557Z,36.70
2023-02-03T02:37:50.009Z,28.93
2023-02-03T02:40:25.540Z,28.77
2023-02-03T02:43:09.389Z,31.80
2023-02-03T02:45:52.535Z,27.20
2023-02-03T02:48:54.095Z,32.23
2023-02-03T02:51:23.262Z,31.70
2023-02-03T02:53:55.855Z,29.80
2023-02-03T02:56:25.602Z,30.77
2023-02-03T02:58:54.305Z,42.20
2023-02-03T03:01:21.118Z,31.80
2023-02-03T03:03:47.931Z,30.83
2023-02-03T03:06:17.545Z,26.90
2023-02-03T03:08:53.639Z,30.53
2023-02-03T03:11:20.613Z,28.77
2023-02-03T03:13:53.494Z,26.27
2023-02-03T03:16:24.609Z,29.27
2023-02-03T03:19:07.000Z,41.13
2023-02-03T03:21:47.652Z,28.50
2023-02-03T03:24:19.956Z,30.50
2023-02-03T03:27:00.437Z,27.70
2023-02-03T03:29:57.877Z,35.60
2023-02-03T03:32:25.522Z,27.10
2023-02-03T03:34:52.824Z,32.67
2023-02-03T03:38:05.683Z,21.20
2023-02-03T03:40:38.632Z,28.87
2023-02-03T03:43:17.615Z,26.57
2023-02-03T03:45:52.224Z,32.83
2023-02-03T03:48:58.678Z,35.93
2023-02-03T03:51:37.243Z,24.70
2023-02-03T03:54:09.644Z,31.00
2023-02-03T03:56:58.800Z,23.37
2023-02-03T03:59:29.047Z,28.73
2023-02-03T04:01:57.199Z,29.57
2023-02-03T04:04:25.921Z,24.43
2023-02-03T04:06:56.133Z,24.00
2023-02-03T04:09:23.179Z,23.80
2023-02-03T04:12:01.793Z,23.20
2023-02-03T04:14:34.703Z,20.80
2023-02-03T04:17:01.848Z,24.43
2023-02-03T04:19:28.691Z,27.30
2023-02-03T04:21:55.644Z,24.63
2023-02-03T04:24:22.399Z,25.93
2023-02-03T04:26:49.121Z,35.27
2023-02-03T04:29:15.886Z,24.83
2023-02-03T04:31:42.615Z,21.23
2023-02-03T04:34:09.764Z,17.13
2023-02-03T04:36:36.500Z,20.03
2023-02-03T04:39:03.678Z,18.77
2023-02-03T04:41:30.434Z,22.20
2023-02-03T04:43:57.167Z,26.60
2023-02-03T04:46:23.856Z,18.73
2023-02-03T04:48:50.534Z,20.33
2023-02-03T04:51:17.252Z,21.23
2023-02-03T04:53:44.025Z,17.80
2023-02-03T04:56:10.788Z,21.30
2023-02-03T04:58:37.687Z,15.90
2023-02-03T05:01:09.230Z,15.40
2023-02-03T05:03:36.423Z,15.37
2023-02-03T05:06:03.576Z,23.00
2023-02-03T05:08:31.262Z,20.13
2023-02-03T05:10:58.774Z,15.50
2023-02-03T05:13:26.303Z,18.03
2023-02-03T05:15:53.050Z,24.80
2023-02-03T05:18:19.834Z,16.03
2023-02-03T05:20:46.579Z,21.23
2023-02-03T05:23:13.310Z,21.90
2023-02-03T05:25:40.029Z,19.13
2023-02-03T05:28:06.832Z,25.63
2023-02-03T05:30:33.654Z,17.13
2023-02-03T05:33:00.368Z,13.70
2023-02-03T05:35:27.367Z,18.10
2023-02-03T05:37:54.081Z,14.43
2023-02-03T05:40:39.548Z,17.87
2023-02-03T05:43:06.311Z,13.47
2023-02-03T05:45:33.168Z,23.60
2023-02-03T05:47:59.934Z,19.90
2023-02-03T05:50:27.924Z,12.83
2023-02-03T05:52:54.758Z,14.83
2023-02-03T05:55:21.851Z,20.53
2023-02-03T05:57:48.535Z,20.13
2023-02-03T06:00:15.607Z,17.87
2023-02-03T06:02:42.310Z,18.70
2023-02-03T06:05:09.347Z,18.07
2023-02-03T06:07:36.131Z,19.00
2023-02-03T06:10:03.140Z,12.27
2023-02-03T06:12:29.892Z,16.80
2023-02-03T06:14:56.631Z,24.13
2023-02-03T06:17:23.297Z,20.23
2023-02-03T06:19:50.027Z,14.20
2023-02-03T06:22:16.765Z,23.47
2023-02-03T06:24:44.822Z,19.00
2023-02-03T06:27:12.091Z,19.03
2023-02-03T06:29:38.888Z,15.43
2023-02-03T06:32:05.961Z,17.43
2023-02-03T06:34:33.375Z,16.33
2023-02-03T06:37:00.301Z,20.43
2023-02-03T06:39:27.308Z,22.13
2023-02-03T06:41:55.757Z,40.37
2023-02-03T06:44:22.971Z,17.90
2023-02-03T06:46:50.792Z,14.70
2023-02-03T06:49:18.032Z,19.17
2023-02-03T06:51:45.480Z,18.13
2023-02-03T06:54:13.778Z,24.43
2023-02-03T06:56:40.718Z,16.47
2023-02-03T06:59:08.823Z,18.27
2023-02-03T07:01:36.212Z,19.50
2023-02-03T07:04:03.768Z,25.57
2023-02-03T07:06:33.848Z,25.80
2023-02-03T07:09:02.664Z,23.93
2023-02-03T07:11:29.663Z,17.37
2023-02-03T07:13:56.560Z,23.00
2023-02-03T07:16:23.776Z,18.47
2023-02-03T07:18:50.528Z,19.77
2023-02-03T07:21:17.753Z,25.10
2023-02-03T07:23:47.543Z,23.43
2023-02-03T07:26:14.421Z,25.47
2023-02-03T07:28:41.153Z,21.53
2023-02-03T07:31:10.982Z,22.83
2023-02-03T07:33:39.054Z,21.23
2023-02-03T07:36:07.022Z,23.30
2023-02-03T07:38:33.918Z,26.83
2023-02-03T07:41:00.703Z,23.67
2023-02-03T07:43:27.396Z,23.17
2023-02-03T07:45:54.096Z,20.60
2023-02-03T07:48:20.974Z,24.70
2023-02-03T07:50:50.848Z,21.80
2023-02-03T07:53:17.854Z,19.93
2023-02-03T07:55:44.621Z,21.93
2023-02-03T07:58:11.640Z,21.90
2023-02-03T08:00:38.428Z,28.33
2023-02-03T08:03:05.191Z,22.43
2023-02-03T08:05:31.915Z,24.40
2023-02-03T08:07:59.482Z,22.67
2023-02-03T08:10:26.705Z,25.53
2023-02-03T08:12:55.241Z,29.20
2023-02-03T08:15:21.999Z,35.13
2023-02-03T08:17:51.961Z,27.33
2023-02-03T08:20:19.044Z,23.70
2023-02-03T08:22:46.064Z,24.80
2023-02-03T08:25:13.433Z,27.60
2023-02-03T08:27:40.934Z,21.93
2023-02-03T08:30:11.751Z,26.00
2023-02-03T08:32:38.425Z,18.57
2023-02-03T08:35:05.761Z,16.50
2023-02-03T08:37:32.687Z,17.03
2023-02-03T08:40:00.009Z,19.13
2023-02-03T08:42:26.870Z,13.47
2023-02-03T08:44:53.556Z,19.67
2023-02-03T08:47:20.300Z,27.20
2023-02-03T08:49:47.446Z,20.77
2023-02-03T08:52:14.953Z,18.87
2023-02-03T08:54:43.151Z,24.37
2023-02-03T08:57:10.060Z,24.83
2023-02-03T08:59:40.258Z,20.67
2023-02-03T09:02:11.450Z,17.17
2023-02-03T09:04:38.698Z,21.20
2023-02-03T09:07:05.420Z,23.00
2023-02-03T09:09:32.357Z,26.57
2023-02-03T09:12:02.466Z,17.67
2023-02-03T09:14:30.010Z,19.13
2023-02-03T09:16:57.233Z,21.17
2023-02-03T09:19:24.146Z,22.63
2023-02-03T09:21:51.403Z,23.80
2023-02-03T09:24:18.851Z,22.17
2023-02-03T09:26:45.862Z,25.03
2023-02-03T09:29:13.053Z,22.87
2023-02-03T09:31:39.951Z,20.03
2023-02-03T09:34:06.897Z,20.30
2023-02-03T09:36:34.199Z,19.80
2023-02-03T09:39:00.989Z,29.00
2023-02-03T09:41:36.797Z,22.20
2023-02-03T09:44:31.186Z,20.00
2023-02-03T09:47:02.680Z,20.63
2023-02-03T09:49:41.530Z,25.10
2023-02-03T09:52:17.540Z,18.10
2023-02-03T09:55:05.342Z,20.60
2023-02-03T09:57:40.683Z,22.50
2023-02-03T10:00:21.964Z,25.00
2023-02-03T10:03:22.490Z,23.43
2023-02-03T10:06:08.101Z,21.90
2023-02-03T10:09:08.104Z,16.60
2023-02-03T10:11:40.723Z,18.97
2023-02-03T10:14:10.236Z,26.97
2023-02-03T10:17:12.152Z,20.53
2023-02-03T10:19:52.680Z,26.10
2023-02-03T10:22:25.911Z,34.07
2023-02-03T10:24:55.738Z,15.60
2023-02-03T10:27:24.534Z,21.27
2023-02-03T10:30:04.277Z,14.23
2023-02-03T10:32:31.440Z,21.00
2023-02-03T10:34:58.141Z,15.40
2023-02-03T10:37:32.079Z,17.13
2023-02-03T10:40:00.749Z,16.40
2023-02-03T10:42:50.104Z,16.03
2023-02-03T10:45:17.247Z,11.20
2023-02-03T10:47:55.006Z,13.97
2023-02-03T10:50:31.895Z,15.67
2023-02-03T10:53:20.486Z,19.77
2023-02-03T10:55:50.327Z,15.53
2023-02-03T10:58:25.705Z,14.83
2023-02-03T11:01:05.276Z,16.17
2023-02-03T11:03:32.165Z,16.07
2023-02-03T11:06:13.386Z,15.63
2023-02-03T11:08:43.313Z,13.70
2023-02-03T11:11:24.969Z,24.07
2023-02-03T11:14:01.561Z,19.23
2023-02-03T11:16:29.770Z,16.20
2023-02-03T11:18:58.473Z,18.63
2023-02-03T11:21:44.101Z,19.70
2023-02-03T11:24:14.216Z,22.57
2023-02-03T11:26:45.651Z,14.77
2023-02-03T11:29:18.361Z,14.73
2023-02-03T11:31:49.881Z,18.63
2023-02-03T11:34:24.121Z,27.67
2023-02-03T11:36:51.103Z,17.60
2023-02-03T11:39:26.434Z,21.27
2023-02-03T11:41:54.091Z,16.10
2023-02-03T11:44:24.258Z,17.03
2023-02-03T11:46:55.745Z,21.53
2023-02-03T11:50:10.909Z,29.57
2023-02-03T11:52:49.583Z,31.53
2023-02-03T11:55:34.832Z,21.97
2023-02-03T11:58:07.212Z,25.13
2023-02-03T12:00:49.947Z,20.67
2023-02-03T12:03:40.265Z,29.83
2023-02-03T12:06:56.266Z,18.93
2023-02-03T12:09:57.618Z,27.00
2023-02-03T12:12:27.570Z,26.20
2023-02-03T12:15:13.044Z,27.33
2023-02-03T12:18:10.568Z,18.73
2023-02-03T12:21:08.104Z,25.97
2023-02-03T12:23:52.712Z,27.47
2023-02-03T12:26:26.395Z,32.97
2023-02-03T12:29:07.605Z,22.80
2023-02-03T12:31:44.403Z,26.00
2023-02-03T12:34:27.809Z,30.83
2023-02-03T12:37:10.363Z,34.97
2023-02-03T12:39:46.404Z,29.00
2023-02-03T12:42:24.648Z,30.60
2023-02-03T12:44:58.114Z,27.73
2023-02-03T12:47:44.057Z,25.60
2023-02-03T12:50:10.881Z,26.83
2023-02-03T12:53:05.987Z,31.97
2023-02-03T12:55:38.959Z,32.20
2023-02-03T12:58:11.714Z,27.43
2023-02-03T13:00:50.223Z,29.67
2023-02-03T13:03:48.980Z,26.07
2023-02-03T13:06:32.251Z,26.03
2023-02-03T13:09:33.084Z,23.87
2023-02-03T13:12:24.840Z,33.87
2023-02-03T13:14:59.019Z,24.20
2023-02-03T13:17:41.164Z,36.03
2023-02-03T13:20:20.575Z,21.13
2023-02-03T13:22:47.353Z,30.07
2023-02-03T13:25:24.660Z,24.33
2023-02-03T13:28:03.509Z,24.50
2023-02-03T13:30:58.039Z,27.93
2023-02-03T13:34:03.126Z,26.00
2023-02-03T13:37:10.435Z,37.17
2023-02-03T13:39:39.952Z,34.43
2023-02-03T13:42:22.529Z,30.00
2023-02-03T13:44:53.865Z,24.77
2023-02-03T13:47:27.789Z,32.70
2023-02-03T13:50:07.137Z,35.10
2023-02-03T13:52:38.577Z,20.03
2023-02-03T13:55:06.165Z,22.50
2023-02-03T13:57:38.318Z,23.77
2023-02-03T14:00:27.907Z,30.73
2023-02-03T14:02:56.114Z,27.23
2023-02-03T14:05:44.557Z,40.37
2023-02-03T14:08:29.358Z,28.57
2023-02-03T14:11:33.228Z,18.50
2023-02-03T14:14:22.765Z,19.50
2023-02-03T14:16:54.654Z,27.83
2023-02-03T14:19:21.692Z,32.50
2023-02-03T14:21:54.297Z,24.23
2023-02-03T14:24:22.319Z,19.00
2023-02-03T14:26:55.122Z,30.53
2023-02-03T14:29:24.928Z,20.20
2023-02-03T14:32:12.170Z,30.07
2023-02-03T14:34:46.783Z,33.87
2023-02-03T14:37:31.465Z,25.50
2023-02-03T14:40:19.496Z,35.20
2023-02-03T14:43:16.992Z,20.53
2023-02-03T14:46:04.761Z,28.60
2023-02-03T14:48:43.803Z,27.70
2023-02-03T14:51:16.819Z,29.80
2023-02-03T14:54:03.427Z,26.03
2023-02-03T14:57:21.222Z,27.60
2023-02-03T15:00:11.786Z,38.90
2023-02-03T15:03:10.405Z,29.53
2023-02-03T15:05:50.764Z,34.17
2023-02-03T15:08:33.316Z,33.93
2023-02-03T15:11:00.898Z,26.17
2023-02-03T15:13:29.906Z,28.40
2023-02-03T15:16:12.867Z,33.03
2023-02-03T15:18:40.870Z,33.60
2023-02-03T15:21:19.328Z,22.10
2023-02-03T15:23:48.445Z,22.33
2023-02-03T15:26:17.539Z,26.43
2023-02-03T15:28:44.576Z,22.07
2023-02-03T15:31:46.041Z,16.90
2023-02-03T15:34:23.441Z,30.90
2023-02-03T15:36:54.292Z,29.60
2023-02-03T15:39:59.392Z,23.63
2023-02-03T15:43:09.442Z,20.97
2023-02-03T15:45:46.095Z,26.20
2023-02-03T15:48:29.137Z,18.27
2023-02-03T15:51:02.997Z,15.53
2023-02-03T15:53:46.702Z,27.17
2023-02-03T15:56:26.512Z,27.83
2023-02-03T15:58:53.458Z,26.50
2023-02-03T16:01:23.906Z,26.63
2023-02-03T16:03:53.308Z,23.30
2023-02-03T16:06:37.013Z,30.80
2023-02-03T16:09:06.919Z,23.00
2023-02-03T16:11:34.868Z,34.23
2023-02-03T16:14:07.555Z,24.27
2023-02-03T16:16:43.777Z,31.77
2023-02-03T16:19:20.436Z,28.13
2023-02-03T16:21:50.165Z,32.13
2023-02-03T16:24:41.022Z,21.70
2023-02-03T16:27:26.192Z,28.27
2023-02-03T16:30:41.354Z,31.80
2023-02-03T16:33:32.568Z,18.83
2023-02-03T16:36:32.103Z,16.80
2023-02-03T16:39:20.743Z,34.73
2023-02-03T16:42:06.167Z,21.80
2023-02-03T16:44:51.743Z,30.13
2023-02-03T16:47:48.910Z,33.40
2023-02-03T16:50:39.045Z,29.73
2023-02-03T16:53:19.463Z,29.40
2023-02-03T16:55:47.154Z,26.30
2023-02-03T16:58:14.129Z,26.67
2023-02-03T17:00:43.339Z,29.83
2023-02-03T17:03:12.758Z,32.23
2023-02-03T17:05:42.384Z,26.07
2023-02-03T17:08:09.559Z,31.20
2023-02-03T17:10:37.481Z,33.77
2023-02-03T17:13:05.155Z,45.67
2023-02-03T17:15:32.202Z,33.33
2023-02-03T17:17:59.349Z,24.73
2023-02-03T17:20:26.542Z,32.57
2023-02-03T17:22:54.666Z,26.47
2023-02-03T17:25:21.954Z,23.77
2023-02-03T17:27:48.953Z,27.87
2023-02-03T17:30:15.934Z,28.47
2023-02-03T17:32:42.716Z,24.93
2023-02-03T17:35:09.469Z,24.87
2023-02-03T17:37:36.458Z,34.23
2023-02-03T17:54:06.210Z,27.73
2023-02-03T17:56:35.671Z,18.67
2023-02-03T17:59:04.164Z,23.20
2023-02-03T18:01:32.075Z,24.33
2023-02-03T18:04:01.519Z,17.40
2023-02-03T18:06:29.835Z,17.43
2023-02-03T18:09:01.915Z,26.93
2023-02-03T18:11:30.366Z,26.17
2023-02-03T18:13:57.473Z,36.57
2023-02-03T18:16:28.971Z,22.93
2023-02-03T18:18:57.072Z,19.43
2023-02-03T18:21:24.755Z,26.60
2023-02-03T18:23:51.627Z,23.20
2023-02-03T18:26:19.955Z,28.73
2023-02-03T18:28:47.192Z,23.23
2023-02-03T18:31:17.540Z,31.13
2023-02-03T18:33:46.258Z,25.17
2023-02-03T18:36:13.525Z,19.40
2023-02-03T18:38:42.404Z,29.73
2023-02-03T18:41:13.632Z,25.73
2023-02-03T18:43:40.910Z,22.33
2023-02-03T18:46:09.577Z,26.40
2023-02-03T18:48:36.739Z,26.00
2023-02-03T18:51:03.685Z,35.57
2023-02-03T18:53:31.216Z,29.43
2023-02-03T18:55:58.009Z,24.63
2023-02-03T18:58:24.690Z,24.17
2023-02-03T19:00:51.511Z,22.40
2023-02-03T19:03:21.162Z,26.53
2023-02-03T19:05:47.986Z,26.80
2023-02-03T19:08:14.686Z,22.93
2023-02-03T19:10:41.411Z,27.57
2023-02-03T19:13:08.129Z,29.33
2023-02-03T19:15:35.274Z,26.70
2023-02-03T19:18:02.049Z,29.60
2023-02-03T19:20:29.027Z,33.07
2023-02-03T19:22:56.782Z,26.80
2023-02-03T19:25:23.895Z,42.37
2023-02-03T19:27:50.855Z,34.13
2023-02-03T19:30:17.763Z,36.90
2023-02-03T19:32:44.573Z,26.20
2023-02-03T19:35:12.622Z,28.33
2023-02-03T19:37:39.509Z,26.23
2023-02-03T19:40:07.033Z,21.57
2023-02-03T19:42:33.735Z,18.43
2023-02-03T19:45:00.542Z,27.53
2023-02-03T19:47:27.642Z,26.60
2023-02-03T19:49:54.397Z,23.67
2023-02-03T19:52:21.140Z,22.63
2023-02-03T19:54:47.945Z,28.77
2023-02-03T19:57:14.711Z,36.43
2023-02-03T19:59:41.475Z,24.63
2023-02-03T20:02:14.216Z,29.37
2023-02-03T20:04:42.193Z,40.53
2023-02-03T20:07:08.905Z,38.13
2023-02-03T20:09:35.798Z,25.87
2023-02-03T20:12:02.535Z,31.53
2023-02-03T20:14:29.874Z,24.93
2023-02-03T20:16:56.609Z,38.60
2023-02-03T20:19:23.416Z,29.53
2023-02-03T20:21:50.298Z,26.10
2023-02-03T20:24:17.277Z,39.20
2023-02-03T20:26:44.016Z,26.23
2023-02-03T20:29:10.797Z,27.27
2023-02-03T20:31:37.539Z,20.20
2023-02-03T20:34:04.299Z,20.97
2023-02-03T20:36:31.018Z,23.23
2023-02-03T20:38:57.788Z,30.43
2023-02-03T20:41:24.753Z,32.37
2023-02-03T20:43:51.499Z,36.00
2023-02-03T20:46:19.505Z,34.53
2023-02-03T20:48:46.277Z,42.10
2023-02-03T20:51:18.683Z,26.53
2023-02-03T20:53:45.472Z,33.40
2023-02-03T20:56:14.810Z,41.67
2023-02-03T20:58:42.527Z,31.00
2023-02-03T21:01:27.848Z,44.77
2023-02-03T21:04:13.053Z,29.53
2023-02-03T21:06:39.896Z,18.93
2023-02-03T21:09:15.926Z,28.33
2023-02-03T21:11:43.465Z,32.37
2023-02-03T21:14:39.180Z,36.70
2023-02-03T21:17:15.757Z,38.13
2023-02-03T21:19:42.621Z,28.97
2023-02-03T21:22:18.070Z,27.53
2023-02-03T21:24:52.284Z,34.63
2023-02-03T21:27:28.714Z,34.40
2023-02-03T21:29:57.579Z,34.23
2023-02-03T21:32:26.565Z,32.07
2023-02-03T21:34:53.305Z,35.73
2023-02-03T21:37:23.068Z,39.20
2023-02-03T21:39:50.492Z,31.90
2023-02-03T21:42:43.557Z,35.33
2023-02-03T21:45:22.452Z,35.40
2023-02-03T21:47:51.064Z,29.03
2023-02-03T21:50:31.682Z,35.80
2023-02-03T21:53:07.879Z,33.73
2023-02-03T21:55:35.816Z,34.63
2023-02-03T21:58:23.495Z,36.40
2023-02-03T22:00:55.687Z,37.20
2023-02-03T22:03:22.881Z,24.40
2023-02-03T22:05:49.909Z,30.73
2023-02-03T22:08:23.941Z,32.30
2023-02-03T22:10:50.861Z,31.50
2023-02-03T22:13:17.761Z,31.83
2023-02-03T22:15:46.289Z,36.80
2023-02-03T22:18:12.989Z,39.47
2023-02-03T22:20:39.704Z,40.73
2023-02-03T22:23:06.468Z,31.27
2023-02-03T22:25:33.267Z,39.57
2023-02-03T22:28:00.046Z,31.40
2023-02-03T22:30:26.973Z,31.17
2023-02-03T22:32:53.789Z,45.10
2023-02-03T22:35:20.743Z,32.53
2023-02-03T22:37:47.629Z,30.10
2023-02-03T22:40:14.421Z,30.97
2023-02-03T22:42:41.255Z,36.63
2023-02-03T22:45:09.124Z,34.30
2023-02-03T22:47:36.001Z,37.07
2023-02-03T22:50:04.587Z,26.30
2023-02-03T22:52:31.564Z,38.33
2023-02-03T22:54:58.329Z,37.13
2023-02-03T22:57:25.130Z,42.33
2023-02-03T22:59:51.926Z,43.20
2023-02-03T23:02:18.768Z,34.77
2023-02-03T23:04:45.764Z,46.23
2023-02-03T23:07:13.067Z,33.87
2023-02-03T23:09:40.232Z,41.53
2023-02-03T23:12:07.289Z,27.30
2023-02-03T23:14:34.287Z,38.80
2023-02-03T23:17:01.476Z,24.10
2023-02-03T23:19:28.263Z,36.03
2023-02-03T23:21:55.063Z,26.90
2023-02-03T23:24:21.913Z,35.93
2023-02-03T23:26:48.631Z,36.33
2023-02-03T23:29:15.766Z,29.33
2023-02-03T23:31:42.736Z,47.23
2023-02-03T23:34:28.171Z,29.57
2023-02-03T23:36:54.889Z,49.43
2023-02-03T23:39:21.955Z,32.07
2023-02-03T23:41:48.654Z,30.03
2023-02-03T23:44:15.433Z,39.93
2023-02-03T23:46:42.207Z,38.40
2023-02-03T23:49:08.904Z,27.83
2023-02-03T23:51:35.587Z,30.70
2023-02-03T23:54:02.287Z,32.93
2023-02-03T23:56:29.042Z,26.83
2023-02-03T23:58:55.744Z,36.30
